sensor_id;sensor_type;location;lat;lon;timestamp;temperature;humidity
5588;DHT22;2816;49.778;9.986;2023-03-23T00:01:27;11.70;99.90
5588;DHT22;2816;49.778;9.986;2023-03-23T00:03:56;11.70;99.90
5588;DHT22;2816;49.778;9.986;2023-03-23T00:06:26;11.80;99.90
5588;DHT22;2816;49.778;9.986;2023-03-23T00:08:54;11.70;99.90
5588;DHT22;2816;49.778;9.986;2023-03-23T00:11:27;11.70;99.90
5588;DHT22;2816;49.778;9.986;2023-03-23T00:13:56;11.70;99.90
5588;DHT22;2816;49.778;9.986;2023-03-23T00:16:28;11.70;99.90
5588;DHT22;2816;49.778;9.986;2023-03-23T00:18:58;11.80;99.90
5588;DHT22;2816;49.778;9.986;2023-03-23T00:21:27;11.80;99.90
5588;DHT22;2816;49.778;9.986;2023-03-23T00:24:01;11.70;99.90
5588;DHT22;2816;49.778;9.986;2023-03-23T00:26:29;11.70;99.90
5588;DHT22;2816;49.778;9.986;2023-03-23T00:28:59;11.70;99.90
5588;DHT22;2816;49.778;9.986;2023-03-23T00:31:27;11.70;99.90
5588;DHT22;2816;49.778;9.986;2023-03-23T00:33:57;11.70;99.90
5588;DHT22;2816;49.778;9.986;2023-03-23T00:36:27;11.70;99.90
5588;DHT22;2816;49.778;9.986;2023-03-23T00:38:55;11.70;99.90
5588;DHT22;2816;49.778;9.986;2023-03-23T00:41:27;11.70;99.90
5588;DHT22;2816;49.778;9.986;2023-03-23T00:43:55;11.70;99.90
5588;DHT22;2816;49.778;9.986;2023-03-23T00:46:22;11.60;99.90
5588;DHT22;2816;49.778;9.986;2023-03-23T00:48:50;11.70;99.90
5588;DHT22;2816;49.778;9.986;2023-03-23T00:51:18;11.60;99.90
5588;DHT22;2816;49.778;9.986;2023-03-23T00:53:46;11.70;99.90
5588;DHT22;2816;49.778;9.986;2023-03-23T00:56:13;11.70;99.90
5588;DHT22;2816;49.778;9.986;2023-03-23T00:58:42;11.70;99.90
5588;DHT22;2816;49.778;9.986;2023-03-23T01:01:10;11.70;99.90
5588;DHT22;2816;49.778;9.986;2023-03-23T01:03:37;11.70;99.90
5588;DHT22;2816;49.778;9.986;2023-03-23T01:06:05;11.60;99.90
5588;DHT22;2816;49.778;9.986;2023-03-23T01:08:34;11.70;99.90
5588;DHT22;2816;49.778;9.986;2023-03-23T01:11:03;11.70;99.90
5588;DHT22;2816;49.778;9.986;2023-03-23T01:13:31;11.70;99.90
5588;DHT22;2816;49.778;9.986;2023-03-23T01:15:59;11.60;99.90
5588;DHT22;2816;49.778;9.986;2023-03-23T01:18:26;11.60;99.90
5588;DHT22;2816;49.778;9.986;2023-03-23T01:20:53;11.60;99.90
5588;DHT22;2816;49.778;9.986;2023-03-23T01:23:20;11.60;99.90
5588;DHT22;2816;49.778;9.986;2023-03-23T01:25:47;11.60;99.90
5588;DHT22;2816;49.778;9.986;2023-03-23T01:28:14;11.50;99.90
5588;DHT22;2816;49.778;9.986;2023-03-23T01:30:41;11.60;99.90
5588;DHT22;2816;49.778;9.986;2023-03-23T01:33:10;11.50;99.90
5588;DHT22;2816;49.778;9.986;2023-03-23T01:35:37;11.50;99.90
5588;DHT22;2816;49.778;9.986;2023-03-23T01:38:05;11.50;99.90
5588;DHT22;2816;49.778;9.986;2023-03-23T01:40:31;11.50;99.90
5588;DHT22;2816;49.778;9.986;2023-03-23T01:42:58;11.50;99.90
5588;DHT22;2816;49.778;9.986;2023-03-23T01:45:29;11.50;99.90
5588;DHT22;2816;49.778;9.986;2023-03-23T01:48:03;11.50;99.90
5588;DHT22;2816;49.778;9.986;2023-03-23T01:50:38;11.50;99.90
5588;DHT22;2816;49.778;9.986;2023-03-23T01:53:10;11.40;99.90
5588;DHT22;2816;49.778;9.986;2023-03-23T01:55:40;11.50;99.90
5588;DHT22;2816;49.778;9.986;2023-03-23T01:58:08;11.50;99.90
5588;DHT22;2816;49.778;9.986;2023-03-23T02:00:36;11.60;99.90
5588;DHT22;2816;49.778;9.986;2023-03-23T02:03:06;11.60;99.90
5588;DHT22;2816;49.778;9.986;2023-03-23T02:05:38;11.50;99.90
5588;DHT22;2816;49.778;9.986;2023-03-23T02:08:07;11.60;99.90
5588;DHT22;2816;49.778;9.986;2023-03-23T02:10:37;11.60;99.90
5588;DHT22;2816;49.778;9.986;2023-03-23T02:13:07;11.50;99.90
5588;DHT22;2816;49.778;9.986;2023-03-23T02:15:42;11.50;99.90
5588;DHT22;2816;49.778;9.986;2023-03-23T02:18:25;11.50;99.90
5588;DHT22;2816;49.778;9.986;2023-03-23T02:24:55;11.40;99.90
5588;DHT22;2816;49.778;9.986;2023-03-23T02:27:40;11.40;99.90
5588;DHT22;2816;49.778;9.986;2023-03-23T02:30:31;11.30;99.90
5588;DHT22;2816;49.778;9.986;2023-03-23T02:33:35;11.30;99.90
5588;DHT22;2816;49.778;9.986;2023-03-23T02:36:09;11.30;99.90
5588;DHT22;2816;49.778;9.986;2023-03-23T02:38:40;11.40;99.90
5588;DHT22;2816;49.778;9.986;2023-03-23T02:41:11;11.40;99.90
5588;DHT22;2816;49.778;9.986;2023-03-23T02:43:42;11.30;99.90
5588;DHT22;2816;49.778;9.986;2023-03-23T02:46:11;11.40;99.90
5588;DHT22;2816;49.778;9.986;2023-03-23T02:48:42;11.50;99.90
5588;DHT22;2816;49.778;9.986;2023-03-23T02:51:10;11.50;99.90
5588;DHT22;2816;49.778;9.986;2023-03-23T02:53:40;11.50;99.90
5588;DHT22;2816;49.778;9.986;2023-03-23T02:56:10;11.40;99.90
5588;DHT22;2816;49.778;9.986;2023-03-23T02:58:38;11.40;99.90
5588;DHT22;2816;49.778;9.986;2023-03-23T03:01:55;11.40;99.90
5588;DHT22;2816;49.778;9.986;2023-03-23T03:04:26;11.30;99.90
5588;DHT22;2816;49.778;9.986;2023-03-23T03:07:04;11.40;99.90
5588;DHT22;2816;49.778;9.986;2023-03-23T03:09:40;11.30;99.90
5588;DHT22;2816;49.778;9.986;2023-03-23T03:12:14;11.30;99.90
5588;DHT22;2816;49.778;9.986;2023-03-23T03:14:51;11.30;99.90
5588;DHT22;2816;49.778;9.986;2023-03-23T03:17:21;11.30;99.90
5588;DHT22;2816;49.778;9.986;2023-03-23T03:19:52;11.30;99.90
5588;DHT22;2816;49.778;9.986;2023-03-23T03:22:22;11.30;99.90
5588;DHT22;2816;49.778;9.986;2023-03-23T03:24:55;11.30;99.90
5588;DHT22;2816;49.778;9.986;2023-03-23T03:27:23;11.30;99.90
5588;DHT22;2816;49.778;9.986;2023-03-23T03:29:54;11.30;99.90
5588;DHT22;2816;49.778;9.986;2023-03-23T03:32:28;11.30;99.90
5588;DHT22;2816;49.778;9.986;2023-03-23T03:35:00;11.20;99.90
5588;DHT22;2816;49.778;9.986;2023-03-23T03:37:33;11.30;99.90
5588;DHT22;2816;49.778;9.986;2023-03-23T03:40:04;11.30;99.90
5588;DHT22;2816;49.778;9.986;2023-03-23T03:42:38;11.30;99.90
5588;DHT22;2816;49.778;9.986;2023-03-23T03:45:06;11.30;99.90
5588;DHT22;2816;49.778;9.986;2023-03-23T03:47:34;11.30;99.90
5588;DHT22;2816;49.778;9.986;2023-03-23T03:50:02;11.20;99.90
5588;DHT22;2816;49.778;9.986;2023-03-23T03:52:30;11.20;99.90
5588;DHT22;2816;49.778;9.986;2023-03-23T03:54:58;11.20;99.90
5588;DHT22;2816;49.778;9.986;2023-03-23T03:57:25;11.20;99.90
5588;DHT22;2816;49.778;9.986;2023-03-23T03:59:52;11.20;99.90
5588;DHT22;2816;49.778;9.986;2023-03-23T04:02:20;11.30;99.90
5588;DHT22;2816;49.778;9.986;2023-03-23T04:04:48;11.30;99.90
5588;DHT22;2816;49.778;9.986;2023-03-23T04:07:18;11.20;99.90
5588;DHT22;2816;49.778;9.986;2023-03-23T04:09:47;11.20;99.90
5588;DHT22;2816;49.778;9.986;2023-03-23T04:12:14;11.20;99.90
5588;DHT22;2816;49.778;9.986;2023-03-23T04:14:41;11.20;99.90
5588;DHT22;2816;49.778;9.986;2023-03-23T04:17:08;11.20;99.90
5588;DHT22;2816;49.778;9.986;2023-03-23T04:19:36;11.20;99.90
5588;DHT22;2816;49.778;9.986;2023-03-23T04:22:03;11.30;99.90
5588;DHT22;2816;49.778;9.986;2023-03-23T04:24:32;11.30;99.90
5588;DHT22;2816;49.778;9.986;2023-03-23T04:27:01;11.30;99.90
5588;DHT22;2816;49.778;9.986;2023-03-23T04:29:28;11.30;99.90
5588;DHT22;2816;49.778;9.986;2023-03-23T04:31:55;11.20;99.90
5588;DHT22;2816;49.778;9.986;2023-03-23T04:34:22;11.20;99.90
5588;DHT22;2816;49.778;9.986;2023-03-23T04:36:49;11.30;99.90
5588;DHT22;2816;49.778;9.986;2023-03-23T04:39:17;11.30;99.90
5588;DHT22;2816;49.778;9.986;2023-03-23T04:41:45;11.20;99.90
5588;DHT22;2816;49.778;9.986;2023-03-23T04:44:12;11.20;99.90
5588;DHT22;2816;49.778;9.986;2023-03-23T04:46:43;11.20;99.90
5588;DHT22;2816;49.778;9.986;2023-03-23T04:49:15;11.20;99.90
5588;DHT22;2816;49.778;9.986;2023-03-23T04:51:48;11.20;99.90
5588;DHT22;2816;49.778;9.986;2023-03-23T04:54:16;11.20;99.90
5588;DHT22;2816;49.778;9.986;2023-03-23T04:56:44;11.20;99.90
5588;DHT22;2816;49.778;9.986;2023-03-23T04:59:11;11.20;99.90
5588;DHT22;2816;49.778;9.986;2023-03-23T05:01:40;11.10;99.90
5588;DHT22;2816;49.778;9.986;2023-03-23T05:04:11;11.10;99.90
5588;DHT22;2816;49.778;9.986;2023-03-23T05:06:42;11.10;99.90
5588;DHT22;2816;49.778;9.986;2023-03-23T05:09:11;11.10;99.90
5588;DHT22;2816;49.778;9.986;2023-03-23T05:11:38;11.10;99.90
5588;DHT22;2816;49.778;9.986;2023-03-23T05:14:07;11.20;99.90
5588;DHT22;2816;49.778;9.986;2023-03-23T05:16:35;11.20;99.90
5588;DHT22;2816;49.778;9.986;2023-03-23T05:19:03;11.20;99.90
5588;DHT22;2816;49.778;9.986;2023-03-23T05:21:30;11.20;99.90
5588;DHT22;2816;49.778;9.986;2023-03-23T05:23:57;11.20;99.90
5588;DHT22;2816;49.778;9.986;2023-03-23T05:26:27;11.30;99.90
5588;DHT22;2816;49.778;9.986;2023-03-23T05:28:55;11.30;99.90
5588;DHT22;2816;49.778;9.986;2023-03-23T05:31:24;11.30;99.90
5588;DHT22;2816;49.778;9.986;2023-03-23T05:33:51;11.30;99.90
5588;DHT22;2816;49.778;9.986;2023-03-23T05:36:18;11.30;99.90
5588;DHT22;2816;49.778;9.986;2023-03-23T05:38:45;11.20;99.90
5588;DHT22;2816;49.778;9.986;2023-03-23T05:41:13;11.30;99.90
5588;DHT22;2816;49.778;9.986;2023-03-23T05:43:40;11.30;99.90
5588;DHT22;2816;49.778;9.986;2023-03-23T05:46:07;11.30;99.90
5588;DHT22;2816;49.778;9.986;2023-03-23T05:48:36;11.30;99.90
5588;DHT22;2816;49.778;9.986;2023-03-23T05:51:04;11.30;99.90
5588;DHT22;2816;49.778;9.986;2023-03-23T05:53:31;11.40;99.90
5588;DHT22;2816;49.778;9.986;2023-03-23T05:55:59;11.30;99.90
5588;DHT22;2816;49.778;9.986;2023-03-23T05:58:26;11.30;99.90
5588;DHT22;2816;49.778;9.986;2023-03-23T06:00:53;11.30;99.90
5588;DHT22;2816;49.778;9.986;2023-03-23T06:03:20;11.30;99.90
5588;DHT22;2816;49.778;9.986;2023-03-23T06:05:49;11.30;99.90
5588;DHT22;2816;49.778;9.986;2023-03-23T06:08:18;11.30;99.90
5588;DHT22;2816;49.778;9.986;2023-03-23T06:10:44;11.40;99.90
5588;DHT22;2816;49.778;9.986;2023-03-23T06:13:12;11.40;99.90
5588;DHT22;2816;49.778;9.986;2023-03-23T06:15:39;11.30;99.90
5588;DHT22;2816;49.778;9.986;2023-03-23T06:18:06;11.30;99.90
5588;DHT22;2816;49.778;9.986;2023-03-23T06:20:33;11.30;99.90
5588;DHT22;2816;49.778;9.986;2023-03-23T06:23:02;11.30;99.90
5588;DHT22;2816;49.778;9.986;2023-03-23T06:25:29;11.30;99.90
5588;DHT22;2816;49.778;9.986;2023-03-23T06:27:57;11.30;99.90
5588;DHT22;2816;49.778;9.986;2023-03-23T06:30:24;11.30;99.90
5588;DHT22;2816;49.778;9.986;2023-03-23T06:32:52;11.20;99.90
5588;DHT22;2816;49.778;9.986;2023-03-23T06:35:19;11.20;99.90
5588;DHT22;2816;49.778;9.986;2023-03-23T06:37:46;11.30;99.90
5588;DHT22;2816;49.778;9.986;2023-03-23T06:40:15;11.20;99.90
5588;DHT22;2816;49.778;9.986;2023-03-23T06:42:44;11.10;99.90
5588;DHT22;2816;49.778;9.986;2023-03-23T06:45:11;11.10;99.90
5588;DHT22;2816;49.778;9.986;2023-03-23T06:47:38;11.10;99.90
5588;DHT22;2816;49.778;9.986;2023-03-23T06:50:06;11.10;99.90
5588;DHT22;2816;49.778;9.986;2023-03-23T06:52:33;11.20;99.90
5588;DHT22;2816;49.778;9.986;2023-03-23T06:55:00;11.20;99.90
5588;DHT22;2816;49.778;9.986;2023-03-23T06:57:28;11.20;99.90
5588;DHT22;2816;49.778;9.986;2023-03-23T06:59:55;11.20;99.90
5588;DHT22;2816;49.778;9.986;2023-03-23T07:02:22;11.20;99.90
5588;DHT22;2816;49.778;9.986;2023-03-23T07:04:49;11.40;99.90
5588;DHT22;2816;49.778;9.986;2023-03-23T07:07:17;11.40;99.90
5588;DHT22;2816;49.778;9.986;2023-03-23T07:09:44;11.60;99.90
5588;DHT22;2816;49.778;9.986;2023-03-23T07:12:11;11.60;99.90
5588;DHT22;2816;49.778;9.986;2023-03-23T07:14:41;11.60;99.90
5588;DHT22;2816;49.778;9.986;2023-03-23T07:17:08;11.60;99.90
5588;DHT22;2816;49.778;9.986;2023-03-23T07:19:35;11.80;99.90
5588;DHT22;2816;49.778;9.986;2023-03-23T07:22:04;12.00;99.90
5588;DHT22;2816;49.778;9.986;2023-03-23T07:24:31;12.10;99.90
5588;DHT22;2816;49.778;9.986;2023-03-23T07:26:58;12.00;99.90
5588;DHT22;2816;49.778;9.986;2023-03-23T07:29:25;11.90;99.90
5588;DHT22;2816;49.778;9.986;2023-03-23T07:31:54;12.10;99.90
5588;DHT22;2816;49.778;9.986;2023-03-23T07:34:21;12.10;99.90
5588;DHT22;2816;49.778;9.986;2023-03-23T07:36:48;12.20;99.90
5588;DHT22;2816;49.778;9.986;2023-03-23T07:39:15;12.20;99.90
5588;DHT22;2816;49.778;9.986;2023-03-23T07:41:42;12.50;99.90
5588;DHT22;2816;49.778;9.986;2023-03-23T07:44:09;12.60;99.90
5588;DHT22;2816;49.778;9.986;2023-03-23T07:46:36;12.80;99.90
5588;DHT22;2816;49.778;9.986;2023-03-23T07:49:05;12.70;99.90
5588;DHT22;2816;49.778;9.986;2023-03-23T07:51:33;12.80;99.90
5588;DHT22;2816;49.778;9.986;2023-03-23T07:54:01;12.60;99.90
5588;DHT22;2816;49.778;9.986;2023-03-23T07:56:31;12.80;99.90
5588;DHT22;2816;49.778;9.986;2023-03-23T07:58:58;12.60;99.90
5588;DHT22;2816;49.778;9.986;2023-03-23T08:01:25;12.70;99.90
5588;DHT22;2816;49.778;9.986;2023-03-23T08:03:52;12.80;99.90
5588;DHT22;2816;49.778;9.986;2023-03-23T08:06:21;12.80;99.90
5588;DHT22;2816;49.778;9.986;2023-03-23T08:08:48;12.90;99.90
5588;DHT22;2816;49.778;9.986;2023-03-23T08:11:16;12.90;99.90
5588;DHT22;2816;49.778;9.986;2023-03-23T08:13:44;13.00;99.90
5588;DHT22;2816;49.778;9.986;2023-03-23T08:16:11;13.00;99.90
5588;DHT22;2816;49.778;9.986;2023-03-23T08:18:39;12.90;99.90
5588;DHT22;2816;49.778;9.986;2023-03-23T08:21:07;13.10;99.90
5588;DHT22;2816;49.778;9.986;2023-03-23T08:23:37;13.00;99.90
5588;DHT22;2816;49.778;9.986;2023-03-23T08:26:05;12.80;99.90
5588;DHT22;2816;49.778;9.986;2023-03-23T08:28:32;12.90;99.90
5588;DHT22;2816;49.778;9.986;2023-03-23T08:31:00;12.90;99.90
5588;DHT22;2816;49.778;9.986;2023-03-23T08:33:26;12.80;99.90
5588;DHT22;2816;49.778;9.986;2023-03-23T08:35:55;12.80;99.90
5588;DHT22;2816;49.778;9.986;2023-03-23T08:38:22;12.80;99.90
5588;DHT22;2816;49.778;9.986;2023-03-23T08:40:51;12.80;99.90
5588;DHT22;2816;49.778;9.986;2023-03-23T08:43:19;12.80;99.90
5588;DHT22;2816;49.778;9.986;2023-03-23T08:45:46;12.80;99.90
5588;DHT22;2816;49.778;9.986;2023-03-23T08:48:13;12.80;99.90
5588;DHT22;2816;49.778;9.986;2023-03-23T08:50:41;12.60;99.90
5588;DHT22;2816;49.778;9.986;2023-03-23T08:53:08;12.50;99.90
5588;DHT22;2816;49.778;9.986;2023-03-23T08:55:34;12.40;99.90
5588;DHT22;2816;49.778;9.986;2023-03-23T08:58:03;12.40;99.90
5588;DHT22;2816;49.778;9.986;2023-03-23T09:00:30;12.40;99.90
5588;DHT22;2816;49.778;9.986;2023-03-23T09:02:58;12.20;99.90
5588;DHT22;2816;49.778;9.986;2023-03-23T09:05:27;12.30;99.90
5588;DHT22;2816;49.778;9.986;2023-03-23T09:07:57;12.20;99.90
5588;DHT22;2816;49.778;9.986;2023-03-23T09:10:25;12.20;99.90
5588;DHT22;2816;49.778;9.986;2023-03-23T09:12:53;12.20;99.90
5588;DHT22;2816;49.778;9.986;2023-03-23T09:15:22;12.30;99.90
5588;DHT22;2816;49.778;9.986;2023-03-23T09:17:50;12.40;99.90
5588;DHT22;2816;49.778;9.986;2023-03-23T09:20:19;12.40;99.90
5588;DHT22;2816;49.778;9.986;2023-03-23T09:22:49;12.30;99.90
5588;DHT22;2816;49.778;9.986;2023-03-23T09:25:18;12.30;99.90
5588;DHT22;2816;49.778;9.986;2023-03-23T09:27:49;12.30;99.90
5588;DHT22;2816;49.778;9.986;2023-03-23T09:30:19;12.30;99.90
5588;DHT22;2816;49.778;9.986;2023-03-23T09:32:47;12.20;99.90
5588;DHT22;2816;49.778;9.986;2023-03-23T09:35:15;12.30;99.90
5588;DHT22;2816;49.778;9.986;2023-03-23T09:37:44;12.30;99.90
5588;DHT22;2816;49.778;9.986;2023-03-23T09:40:13;12.20;99.90
5588;DHT22;2816;49.778;9.986;2023-03-23T09:45:43;12.30;99.90
5588;DHT22;2816;49.778;9.986;2023-03-23T09:48:28;12.30;99.90
5588;DHT22;2816;49.778;9.986;2023-03-23T09:51:02;12.40;99.90
5588;DHT22;2816;49.778;9.986;2023-03-23T09:53:35;12.40;99.90
5588;DHT22;2816;49.778;9.986;2023-03-23T09:56:08;12.40;99.90
5588;DHT22;2816;49.778;9.986;2023-03-23T09:58:42;12.40;99.90
5588;DHT22;2816;49.778;9.986;2023-03-23T10:01:16;12.50;99.90
5588;DHT22;2816;49.778;9.986;2023-03-23T10:03:46;12.50;99.90
5588;DHT22;2816;49.778;9.986;2023-03-23T10:06:16;12.50;99.90
5588;DHT22;2816;49.778;9.986;2023-03-23T10:08:45;12.60;99.90
5588;DHT22;2816;49.778;9.986;2023-03-23T10:11:21;12.60;99.90
5588;DHT22;2816;49.778;9.986;2023-03-23T10:14:01;12.60;99.90
5588;DHT22;2816;49.778;9.986;2023-03-23T10:16:31;12.60;99.90
5588;DHT22;2816;49.778;9.986;2023-03-23T10:19:07;12.60;99.90
5588;DHT22;2816;49.778;9.986;2023-03-23T10:21:44;12.70;99.90
5588;DHT22;2816;49.778;9.986;2023-03-23T10:24:15;12.70;99.90
5588;DHT22;2816;49.778;9.986;2023-03-23T10:26:49;12.70;99.90
5588;DHT22;2816;49.778;9.986;2023-03-23T10:29:24;12.80;99.90
5588;DHT22;2816;49.778;9.986;2023-03-23T10:31:56;12.80;99.90
5588;DHT22;2816;49.778;9.986;2023-03-23T10:34:30;12.80;99.90
5588;DHT22;2816;49.778;9.986;2023-03-23T10:37:03;12.80;99.90
5588;DHT22;2816;49.778;9.986;2023-03-23T10:39:38;12.90;99.90
5588;DHT22;2816;49.778;9.986;2023-03-23T10:42:08;13.00;99.90
5588;DHT22;2816;49.778;9.986;2023-03-23T10:44:36;13.10;99.90
5588;DHT22;2816;49.778;9.986;2023-03-23T10:47:05;13.10;99.90
5588;DHT22;2816;49.778;9.986;2023-03-23T10:49:42;13.10;99.90
5588;DHT22;2816;49.778;9.986;2023-03-23T10:52:27;13.30;99.90
5588;DHT22;2816;49.778;9.986;2023-03-23T10:54:57;13.20;99.90
5588;DHT22;2816;49.778;9.986;2023-03-23T10:57:26;13.30;99.90
5588;DHT22;2816;49.778;9.986;2023-03-23T10:59:58;13.40;99.90
5588;DHT22;2816;49.778;9.986;2023-03-23T11:02:26;13.50;99.90
5588;DHT22;2816;49.778;9.986;2023-03-23T11:04:59;13.70;99.90
5588;DHT22;2816;49.778;9.986;2023-03-23T11:07:29;13.80;99.90
5588;DHT22;2816;49.778;9.986;2023-03-23T11:09:59;13.80;99.90
5588;DHT22;2816;49.778;9.986;2023-03-23T11:12:33;13.70;99.90
5588;DHT22;2816;49.778;9.986;2023-03-23T11:15:11;13.80;99.90
5588;DHT22;2816;49.778;9.986;2023-03-23T11:17:42;13.80;99.90
5588;DHT22;2816;49.778;9.986;2023-03-23T11:20:19;14.00;99.90
5588;DHT22;2816;49.778;9.986;2023-03-23T11:22:47;14.00;99.90
5588;DHT22;2816;49.778;9.986;2023-03-23T11:25:14;13.90;99.90
5588;DHT22;2816;49.778;9.986;2023-03-23T11:27:42;14.00;99.90
5588;DHT22;2816;49.778;9.986;2023-03-23T11:30:11;13.90;99.90
5588;DHT22;2816;49.778;9.986;2023-03-23T11:32:43;14.00;99.90
5588;DHT22;2816;49.778;9.986;2023-03-23T11:35:17;14.00;99.90
5588;DHT22;2816;49.778;9.986;2023-03-23T11:37:48;14.00;99.90
5588;DHT22;2816;49.778;9.986;2023-03-23T11:40:17;14.00;99.90
5588;DHT22;2816;49.778;9.986;2023-03-23T11:42:46;14.00;99.90
5588;DHT22;2816;49.778;9.986;2023-03-23T11:45:17;14.00;99.90
5588;DHT22;2816;49.778;9.986;2023-03-23T11:47:54;13.90;99.90
5588;DHT22;2816;49.778;9.986;2023-03-23T11:50:25;13.90;99.90
5588;DHT22;2816;49.778;9.986;2023-03-23T11:52:58;13.90;99.90
5588;DHT22;2816;49.778;9.986;2023-03-23T11:55:32;13.90;99.90
5588;DHT22;2816;49.778;9.986;2023-03-23T11:58:06;13.80;99.90
5588;DHT22;2816;49.778;9.986;2023-03-23T12:00:34;13.70;99.90
5588;DHT22;2816;49.778;9.986;2023-03-23T12:03:30;13.60;99.90
5588;DHT22;2816;49.778;9.986;2023-03-23T12:06:04;13.60;99.90
5588;DHT22;2816;49.778;9.986;2023-03-23T12:09:01;13.70;99.90
5588;DHT22;2816;49.778;9.986;2023-03-23T12:11:38;13.70;99.90
5588;DHT22;2816;49.778;9.986;2023-03-23T12:14:14;13.70;99.90
5588;DHT22;2816;49.778;9.986;2023-03-23T12:16:52;13.70;99.90
5588;DHT22;2816;49.778;9.986;2023-03-23T12:19:27;13.70;99.90
5588;DHT22;2816;49.778;9.986;2023-03-23T12:22:08;13.60;99.90
5588;DHT22;2816;49.778;9.986;2023-03-23T12:24:48;13.60;99.90
5588;DHT22;2816;49.778;9.986;2023-03-23T12:27:22;13.60;99.90
5588;DHT22;2816;49.778;9.986;2023-03-23T12:30:25;13.60;99.90
5588;DHT22;2816;49.778;9.986;2023-03-23T12:33:15;13.60;99.90
5588;DHT22;2816;49.778;9.986;2023-03-23T12:35:52;13.50;99.90
5588;DHT22;2816;49.778;9.986;2023-03-23T12:38:50;13.50;99.90
5588;DHT22;2816;49.778;9.986;2023-03-23T12:41:23;13.50;99.90
5588;DHT22;2816;49.778;9.986;2023-03-23T12:43:55;13.40;99.90
5588;DHT22;2816;49.778;9.986;2023-03-23T12:46:48;13.50;99.90
5588;DHT22;2816;49.778;9.986;2023-03-23T12:49:22;13.40;99.90
5588;DHT22;2816;49.778;9.986;2023-03-23T12:51:55;13.40;99.90
5588;DHT22;2816;49.778;9.986;2023-03-23T12:54:29;13.30;99.90
5588;DHT22;2816;49.778;9.986;2023-03-23T12:57:01;13.40;99.90
5588;DHT22;2816;49.778;9.986;2023-03-23T12:59:35;13.40;99.90
5588;DHT22;2816;49.778;9.986;2023-03-23T13:02:13;13.60;99.90
5588;DHT22;2816;49.778;9.986;2023-03-23T13:04:45;13.60;99.90
5588;DHT22;2816;49.778;9.986;2023-03-23T13:07:16;13.60;99.90
5588;DHT22;2816;49.778;9.986;2023-03-23T13:09:52;13.80;99.90
5588;DHT22;2816;49.778;9.986;2023-03-23T13:12:21;13.80;99.90
5588;DHT22;2816;49.778;9.986;2023-03-23T13:14:56;13.80;99.90
5588;DHT22;2816;49.778;9.986;2023-03-23T13:17:35;13.80;99.90
5588;DHT22;2816;49.778;9.986;2023-03-23T13:20:27;13.90;99.90
5588;DHT22;2816;49.778;9.986;2023-03-23T13:23:01;13.90;99.90
5588;DHT22;2816;49.778;9.986;2023-03-23T13:25:51;13.90;99.90
5588;DHT22;2816;49.778;9.986;2023-03-23T13:28:20;14.00;99.90
5588;DHT22;2816;49.778;9.986;2023-03-23T13:30:56;14.00;99.90
5588;DHT22;2816;49.778;9.986;2023-03-23T13:33:24;14.00;99.90
5588;DHT22;2816;49.778;9.986;2023-03-23T13:35:51;14.00;99.90
5588;DHT22;2816;49.778;9.986;2023-03-23T13:38:22;14.20;99.90
5588;DHT22;2816;49.778;9.986;2023-03-23T13:40:52;14.20;99.90
5588;DHT22;2816;49.778;9.986;2023-03-23T13:43:26;14.30;99.90
5588;DHT22;2816;49.778;9.986;2023-03-23T13:45:54;14.30;99.90
5588;DHT22;2816;49.778;9.986;2023-03-23T13:48:24;14.60;99.90
5588;DHT22;2816;49.778;9.986;2023-03-23T13:50:54;14.50;99.90
5588;DHT22;2816;49.778;9.986;2023-03-23T13:53:27;14.70;99.90
5588;DHT22;2816;49.778;9.986;2023-03-23T13:56:13;14.50;99.90
5588;DHT22;2816;49.778;9.986;2023-03-23T13:58:47;14.50;99.90
5588;DHT22;2816;49.778;9.986;2023-03-23T14:01:16;14.50;99.90
5588;DHT22;2816;49.778;9.986;2023-03-23T14:03:46;14.50;99.90
5588;DHT22;2816;49.778;9.986;2023-03-23T14:06:18;14.60;99.90
5588;DHT22;2816;49.778;9.986;2023-03-23T14:08:48;14.60;99.90
5588;DHT22;2816;49.778;9.986;2023-03-23T14:11:21;14.60;99.90
5588;DHT22;2816;49.778;9.986;2023-03-23T14:14:00;14.60;99.90
5588;DHT22;2816;49.778;9.986;2023-03-23T14:16:35;14.40;99.90
5588;DHT22;2816;49.778;9.986;2023-03-23T14:19:12;14.40;99.90
5588;DHT22;2816;49.778;9.986;2023-03-23T14:21:42;14.40;99.90
5588;DHT22;2816;49.778;9.986;2023-03-23T14:24:11;14.40;99.90
5588;DHT22;2816;49.778;9.986;2023-03-23T14:26:39;14.40;99.90
5588;DHT22;2816;49.778;9.986;2023-03-23T14:29:10;14.40;99.90
5588;DHT22;2816;49.778;9.986;2023-03-23T14:31:38;14.50;99.90
5588;DHT22;2816;49.778;9.986;2023-03-23T14:34:13;14.40;99.90
5588;DHT22;2816;49.778;9.986;2023-03-23T14:36:41;14.30;99.90
5588;DHT22;2816;49.778;9.986;2023-03-23T14:39:16;14.40;99.90
5588;DHT22;2816;49.778;9.986;2023-03-23T14:41:45;14.40;99.90
5588;DHT22;2816;49.778;9.986;2023-03-23T14:44:16;14.40;99.90
5588;DHT22;2816;49.778;9.986;2023-03-23T14:46:45;14.40;99.90
5588;DHT22;2816;49.778;9.986;2023-03-23T14:49:14;14.30;99.90
5588;DHT22;2816;49.778;9.986;2023-03-23T14:51:54;14.30;99.90
5588;DHT22;2816;49.778;9.986;2023-03-23T14:54:23;14.20;99.90
5588;DHT22;2816;49.778;9.986;2023-03-23T14:56:53;14.10;99.90
5588;DHT22;2816;49.778;9.986;2023-03-23T14:59:20;14.10;99.90
5588;DHT22;2816;49.778;9.986;2023-03-23T15:01:49;14.10;99.90
5588;DHT22;2816;49.778;9.986;2023-03-23T15:04:19;14.00;99.90
5588;DHT22;2816;49.778;9.986;2023-03-23T15:06:49;14.00;99.90
5588;DHT22;2816;49.778;9.986;2023-03-23T15:09:18;13.90;99.90
5588;DHT22;2816;49.778;9.986;2023-03-23T15:11:54;13.90;99.90
5588;DHT22;2816;49.778;9.986;2023-03-23T15:14:23;13.90;99.90
5588;DHT22;2816;49.778;9.986;2023-03-23T15:16:52;13.90;99.90
5588;DHT22;2816;49.778;9.986;2023-03-23T15:19:22;14.00;99.90
5588;DHT22;2816;49.778;9.986;2023-03-23T15:21:52;13.90;99.90
5588;DHT22;2816;49.778;9.986;2023-03-23T15:24:26;13.90;99.90
5588;DHT22;2816;49.778;9.986;2023-03-23T15:27:11;13.90;99.90
5588;DHT22;2816;49.778;9.986;2023-03-23T15:29:50;13.80;99.90
5588;DHT22;2816;49.778;9.986;2023-03-23T15:32:22;13.80;99.90
5588;DHT22;2816;49.778;9.986;2023-03-23T15:34:49;13.80;99.90
5588;DHT22;2816;49.778;9.986;2023-03-23T15:37:21;13.80;99.90
5588;DHT22;2816;49.778;9.986;2023-03-23T15:39:49;13.70;99.90
5588;DHT22;2816;49.778;9.986;2023-03-23T15:42:24;13.70;99.90
5588;DHT22;2816;49.778;9.986;2023-03-23T15:45:05;13.70;99.90
5588;DHT22;2816;49.778;9.986;2023-03-23T15:47:38;13.60;99.90
5588;DHT22;2816;49.778;9.986;2023-03-23T15:50:13;13.70;99.90
5588;DHT22;2816;49.778;9.986;2023-03-23T15:52:40;13.60;99.90
5588;DHT22;2816;49.778;9.986;2023-03-23T15:55:21;13.60;99.90
5588;DHT22;2816;49.778;9.986;2023-03-23T15:57:51;13.60;99.90
5588;DHT22;2816;49.778;9.986;2023-03-23T16:00:20;13.70;99.90
5588;DHT22;2816;49.778;9.986;2023-03-23T16:02:52;13.70;99.90
5588;DHT22;2816;49.778;9.986;2023-03-23T16:05:19;13.80;99.90
5588;DHT22;2816;49.778;9.986;2023-03-23T16:07:46;13.80;99.90
5588;DHT22;2816;49.778;9.986;2023-03-23T16:10:15;13.80;99.90
5588;DHT22;2816;49.778;9.986;2023-03-23T16:12:43;13.80;99.90
5588;DHT22;2816;49.778;9.986;2023-03-23T16:15:11;13.90;99.90
5588;DHT22;2816;49.778;9.986;2023-03-23T16:17:39;13.80;99.90
5588;DHT22;2816;49.778;9.986;2023-03-23T16:20:12;13.80;99.90
5588;DHT22;2816;49.778;9.986;2023-03-23T16:22:39;13.80;99.90
5588;DHT22;2816;49.778;9.986;2023-03-23T16:25:07;13.70;99.90
5588;DHT22;2816;49.778;9.986;2023-03-23T16:27:33;13.70;99.90
5588;DHT22;2816;49.778;9.986;2023-03-23T16:30:01;13.80;99.90
5588;DHT22;2816;49.778;9.986;2023-03-23T16:32:30;13.80;99.90